createdAt,value
2022-10-19T00:00:18.489Z,8.00
2022-10-19T00:02:46.897Z,12.77
2022-10-19T00:05:15.323Z,7.20
2022-10-19T00:07:43.728Z,8.07
2022-10-19T00:10:12.368Z,8.40
2022-10-19T00:12:40.784Z,9.90
2022-10-19T00:15:09.649Z,10.33
2022-10-19T00:17:39.399Z,12.30
2022-10-19T00:20:08.113Z,13.40
2022-10-19T00:22:36.571Z,10.70
2022-10-19T00:25:05.077Z,15.83
2022-10-19T00:27:33.528Z,10.43
2022-10-19T00:30:01.970Z,19.43
2022-10-19T00:32:30.418Z,7.50
2022-10-19T00:35:00.257Z,7.03
2022-10-19T00:37:28.815Z,9.93
2022-10-19T00:39:57.160Z,9.50
2022-10-19T00:42:25.534Z,6.07
2022-10-19T00:45:02.005Z,11.83
2022-10-19T00:47:30.668Z,14.80
2022-10-19T00:50:01.084Z,13.63
2022-10-19T00:52:29.560Z,10.17
2022-10-19T00:54:59.216Z,13.47
2022-10-19T00:57:29.467Z,6.10
2022-10-19T00:59:58.041Z,14.60
2022-10-19T01:02:26.414Z,19.87
2022-10-19T01:04:55.287Z,10.67
2022-10-19T01:07:26.281Z,9.00
2022-10-19T01:09:54.875Z,16.00
2022-10-19T01:12:29.139Z,10.57
2022-10-19T01:15:02.663Z,8.93
2022-10-19T01:17:34.513Z,14.73
2022-10-19T01:20:25.121Z,5.77
2022-10-19T01:23:02.996Z,8.97
2022-10-19T01:25:37.254Z,8.97
2022-10-19T01:28:14.713Z,12.40
2022-10-19T01:30:49.520Z,14.50
2022-10-19T01:33:21.632Z,11.13
2022-10-19T01:35:55.364Z,8.60
2022-10-19T01:38:26.850Z,10.50
2022-10-19T01:40:57.781Z,7.13
2022-10-19T01:43:33.473Z,10.63
2022-10-19T01:46:07.947Z,6.87
2022-10-19T01:48:37.618Z,8.17
2022-10-19T01:51:07.813Z,8.50
2022-10-19T01:53:42.068Z,13.80
2022-10-19T01:56:10.784Z,10.33
2022-10-19T01:58:39.450Z,8.97
2022-10-19T02:03:41.347Z,7.67
2022-10-19T02:06:10.783Z,7.90
2022-10-19T02:08:40.990Z,8.40
2022-10-19T02:11:09.725Z,9.33
2022-10-19T02:13:38.734Z,9.57
2022-10-19T02:16:11.380Z,10.33
2022-10-19T02:18:42.187Z,5.60
2022-10-19T02:21:10.601Z,10.30
2022-10-19T02:23:39.142Z,11.43
2022-10-19T02:26:07.775Z,10.27
2022-10-19T02:28:36.539Z,11.63
2022-10-19T02:31:04.965Z,12.17
2022-10-19T02:33:34.622Z,12.33
2022-10-19T02:36:02.883Z,14.33
2022-10-19T02:38:31.321Z,9.33
2022-10-19T02:41:06.295Z,9.77
2022-10-19T02:43:36.231Z,12.40
2022-10-19T02:46:06.609Z,14.90
2022-10-19T02:48:37.189Z,17.83
2022-10-19T02:51:05.553Z,17.10
2022-10-19T02:53:37.002Z,15.10
2022-10-19T02:56:08.493Z,16.43
2022-10-19T02:58:39.966Z,10.83
2022-10-19T03:01:11.436Z,20.10
2022-10-19T03:03:44.316Z,4.97
2022-10-19T03:06:15.690Z,10.37
2022-10-19T03:08:44.073Z,12.40
2022-10-19T03:11:12.323Z,7.90
2022-10-19T03:13:43.922Z,8.00
2022-10-19T03:16:13.422Z,9.80
2022-10-19T03:18:43.321Z,12.97
2022-10-19T03:21:13.083Z,16.43
2022-10-19T03:23:41.966Z,11.57
2022-10-19T03:26:12.533Z,17.23
2022-10-19T03:28:41.000Z,13.97
2022-10-19T03:31:09.343Z,9.27
2022-10-19T03:33:37.572Z,8.30
2022-10-19T03:36:20.362Z,12.13
2022-10-19T03:38:51.778Z,12.40
2022-10-19T03:41:23.303Z,14.50
2022-10-19T03:43:54.921Z,17.17
2022-10-19T03:46:26.424Z,19.87
2022-10-19T03:48:58.295Z,9.90
2022-10-19T03:51:32.255Z,28.53
2022-10-19T03:54:04.324Z,18.40
2022-10-19T03:56:33.002Z,27.87
2022-10-19T03:59:05.082Z,21.63
2022-10-19T04:01:37.083Z,12.40
2022-10-19T04:04:09.841Z,26.70
2022-10-19T04:06:39.985Z,30.60
2022-10-19T04:09:12.095Z,17.70
2022-10-19T04:11:43.285Z,20.37
2022-10-19T04:14:22.795Z,25.70
2022-10-19T04:17:04.302Z,23.30
2022-10-19T04:19:36.094Z,21.67
2022-10-19T04:22:08.868Z,24.60
2022-10-19T04:24:40.411Z,24.07
2022-10-19T04:27:11.615Z,52.23
2022-10-19T04:29:43.041Z,22.23
2022-10-19T04:32:14.224Z,29.60
2022-10-19T04:34:45.534Z,22.93
2022-10-19T04:37:18.397Z,26.33
2022-10-19T04:39:49.767Z,55.60
2022-10-19T04:42:21.047Z,40.37
2022-10-19T04:44:52.349Z,29.77
2022-10-19T04:47:23.690Z,25.47
2022-10-19T04:49:55.024Z,28.93
2022-10-19T04:52:27.696Z,32.87
2022-10-19T04:55:00.184Z,26.50
2022-10-19T04:57:31.806Z,15.87
2022-10-19T05:00:03.245Z,24.67
2022-10-19T05:02:34.544Z,27.73
2022-10-19T05:05:05.807Z,39.63
2022-10-19T05:07:38.620Z,29.60
2022-10-19T05:10:10.723Z,21.93
2022-10-19T05:12:41.852Z,49.00
2022-10-19T05:15:13.779Z,36.60
2022-10-19T05:17:44.984Z,36.60
2022-10-19T05:20:16.524Z,38.70
2022-10-19T05:22:49.234Z,23.10
2022-10-19T05:25:20.702Z,36.77
2022-10-19T05:27:55.602Z,29.53
2022-10-19T05:30:26.871Z,32.67
2022-10-19T05:32:58.102Z,21.40
2022-10-19T05:35:29.537Z,23.17
2022-10-19T05:38:02.252Z,38.73
2022-10-19T05:40:33.723Z,34.50
2022-10-19T05:43:05.058Z,37.40
2022-10-19T05:45:36.454Z,36.43
2022-10-19T05:48:07.617Z,24.53
2022-10-19T05:50:38.827Z,54.97
2022-10-19T05:53:11.561Z,39.93
2022-10-19T05:55:42.944Z,51.90
2022-10-19T05:58:14.341Z,33.03
2022-10-19T06:00:45.727Z,28.13
2022-10-19T06:03:15.550Z,26.87
2022-10-19T06:05:46.951Z,56.97
2022-10-19T06:08:18.294Z,19.60
2022-10-19T06:10:49.850Z,20.73
2022-10-19T06:13:21.565Z,28.43
2022-10-19T06:15:55.178Z,19.60
2022-10-19T06:18:26.694Z,41.10
2022-10-19T06:20:57.814Z,28.00
2022-10-19T06:23:30.256Z,35.03
2022-10-19T06:26:01.406Z,39.00
2022-10-19T06:28:32.432Z,27.17
2022-10-19T06:31:07.069Z,23.20
2022-10-19T06:33:38.769Z,22.13
2022-10-19T06:36:08.593Z,35.50
2022-10-19T06:38:39.428Z,16.47
2022-10-19T06:41:09.205Z,28.40
2022-10-19T06:43:40.328Z,23.17
2022-10-19T06:46:10.105Z,27.37
2022-10-19T06:48:41.347Z,20.67
2022-10-19T06:51:11.863Z,20.73
2022-10-19T06:53:42.596Z,18.17
2022-10-19T06:56:13.081Z,18.97
2022-10-19T06:58:42.175Z,12.10
2022-10-19T07:01:13.880Z,13.20
2022-10-19T07:03:43.757Z,16.97
2022-10-19T07:06:16.585Z,14.90
2022-10-19T07:08:47.338Z,19.40
2022-10-19T07:11:18.861Z,18.00
2022-10-19T07:13:48.298Z,25.30
2022-10-19T07:16:21.066Z,18.93
2022-10-19T07:18:51.436Z,18.27
2022-10-19T07:21:22.079Z,35.67
2022-10-19T07:23:52.972Z,27.90
2022-10-19T07:26:26.800Z,23.90
2022-10-19T07:28:57.867Z,19.43
2022-10-19T07:31:28.059Z,15.90
2022-10-19T07:33:57.194Z,26.60
2022-10-19T07:36:27.288Z,19.73
2022-10-19T07:38:58.059Z,22.37
2022-10-19T07:41:28.244Z,18.13
2022-10-19T07:43:58.413Z,13.03
2022-10-19T07:46:29.597Z,22.50
2022-10-19T07:48:58.894Z,11.60
2022-10-19T07:54:00.286Z,15.53
2022-10-19T07:56:32.122Z,14.67
2022-10-19T07:59:04.926Z,25.30
2022-10-19T08:01:35.130Z,10.13
2022-10-19T08:06:52.908Z,10.43
2022-10-19T08:09:51.046Z,12.60
2022-10-19T08:12:15.149Z,11.27
2022-10-19T08:14:45.202Z,13.63
2022-10-19T08:17:17.410Z,10.93
2022-10-19T08:19:47.081Z,6.97
2022-10-19T08:22:16.531Z,13.90
2022-10-19T08:24:49.029Z,12.70
2022-10-19T08:27:18.428Z,23.10
2022-10-19T08:29:47.802Z,9.87
2022-10-19T08:32:17.200Z,17.80
2022-10-19T08:34:46.716Z,14.43
2022-10-19T08:37:25.815Z,12.30
2022-10-19T08:40:09.000Z,10.77
2022-10-19T08:42:47.805Z,10.60
2022-10-19T08:45:26.869Z,13.50
2022-10-19T08:48:07.724Z,12.97
2022-10-19T08:50:40.965Z,7.83
2022-10-19T08:53:12.954Z,7.93
2022-10-19T08:55:47.822Z,12.53
2022-10-19T08:58:23.864Z,9.37
2022-10-19T09:00:59.005Z,6.83
2022-10-19T09:03:55.368Z,10.23
2022-10-19T09:06:30.746Z,14.77
2022-10-19T09:08:59.258Z,7.17
2022-10-19T09:11:31.241Z,11.00
2022-10-19T09:14:05.358Z,16.67
2022-10-19T09:16:35.102Z,7.20
2022-10-19T09:19:04.814Z,17.70
2022-10-19T09:21:47.362Z,13.27
2022-10-19T09:24:21.149Z,4.00
2022-10-19T09:26:56.049Z,7.90
2022-10-19T09:29:30.194Z,6.93
2022-10-19T09:32:03.457Z,9.70
2022-10-19T09:34:35.821Z,13.47
2022-10-19T09:37:05.618Z,4.83
2022-10-19T09:39:35.739Z,5.57
2022-10-19T09:42:11.058Z,9.60
2022-10-19T09:44:40.548Z,2.90
2022-10-19T09:47:20.242Z,10.43
2022-10-19T09:49:51.093Z,27.97
2022-10-19T09:52:28.146Z,5.53
2022-10-19T09:55:02.341Z,5.27
2022-10-19T09:57:35.310Z,8.43
2022-10-19T10:00:03.996Z,6.00
2022-10-19T10:02:34.404Z,9.57
2022-10-19T10:05:07.431Z,6.93
2022-10-19T10:07:38.375Z,3.90
2022-10-19T10:10:12.288Z,8.80
2022-10-19T10:12:43.981Z,4.63
2022-10-19T10:15:20.760Z,5.33
2022-10-19T10:17:50.944Z,5.27
2022-10-19T10:20:24.391Z,6.70
2022-10-19T10:22:58.581Z,10.23
2022-10-19T10:25:31.449Z,4.40
2022-10-19T10:28:03.575Z,3.60
2022-10-19T10:30:36.578Z,6.00
2022-10-19T10:33:13.274Z,7.20
2022-10-19T10:35:49.101Z,4.37
2022-10-19T10:38:18.945Z,3.10
2022-10-19T10:40:52.022Z,3.73
2022-10-19T10:43:23.772Z,3.50
2022-10-19T10:45:53.229Z,4.60
2022-10-19T10:48:28.717Z,4.30
2022-10-19T10:50:57.097Z,2.70
2022-10-19T10:53:38.266Z,5.87
2022-10-19T10:56:07.441Z,2.70
2022-10-19T10:58:43.462Z,1.93
2022-10-19T11:01:17.187Z,2.80
2022-10-19T11:03:47.897Z,2.10
2022-10-19T11:06:16.340Z,4.90
2022-10-19T11:08:48.157Z,4.83
2022-10-19T11:11:18.840Z,3.07
2022-10-19T11:13:52.809Z,4.57
2022-10-19T11:16:25.844Z,2.80
2022-10-19T11:18:56.929Z,3.67
2022-10-19T11:21:29.930Z,7.00
2022-10-19T11:24:03.256Z,2.40
2022-10-19T11:26:37.364Z,2.10
2022-10-19T11:29:14.468Z,3.73
2022-10-19T11:31:45.893Z,3.40
2022-10-19T11:34:23.699Z,3.63
2022-10-19T11:36:58.345Z,2.40
2022-10-19T11:39:36.095Z,2.93
2022-10-19T11:42:11.364Z,1.83
2022-10-19T11:44:51.754Z,1.33
2022-10-19T11:47:29.153Z,2.60
2022-10-19T11:50:05.270Z,4.27
2022-10-19T11:52:37.624Z,1.10
2022-10-19T11:55:14.886Z,4.73
2022-10-19T11:57:50.789Z,2.20
2022-10-19T12:00:38.250Z,1.80
2022-10-19T12:03:27.424Z,2.70
2022-10-19T12:06:09.260Z,4.27
2022-10-19T12:08:44.778Z,1.60
2022-10-19T12:11:26.035Z,3.03
2022-10-19T12:13:56.478Z,2.40
2022-10-19T12:16:30.922Z,1.00
2022-10-19T12:19:04.557Z,2.60
2022-10-19T12:21:35.180Z,2.27
2022-10-19T12:24:07.255Z,2.27
2022-10-19T12:26:37.479Z,3.40
2022-10-19T12:29:09.463Z,2.53
2022-10-19T12:31:39.322Z,2.97
2022-10-19T12:34:12.276Z,1.83
2022-10-19T12:36:47.384Z,2.03
2022-10-19T12:39:22.331Z,6.47
2022-10-19T12:41:55.914Z,2.53
2022-10-19T12:44:39.022Z,7.07
2022-10-19T12:47:12.854Z,3.17
2022-10-19T12:49:51.078Z,5.07
2022-10-19T12:52:38.619Z,5.87
2022-10-19T12:55:17.333Z,4.07
2022-10-19T12:57:50.718Z,3.10
2022-10-19T13:00:26.625Z,5.40
2022-10-19T13:03:02.568Z,3.53
2022-10-19T13:05:34.945Z,5.53
2022-10-19T13:08:06.950Z,1.70
2022-10-19T13:10:40.411Z,8.57
2022-10-19T13:13:28.697Z,4.73
2022-10-19T13:15:59.031Z,5.30
2022-10-19T13:18:48.634Z,8.37
2022-10-19T13:21:34.525Z,4.70
2022-10-19T13:24:22.198Z,3.83
2022-10-19T13:26:50.468Z,8.60
2022-10-19T13:29:28.921Z,5.90
2022-10-19T13:32:19.825Z,4.20
2022-10-19T13:34:49.925Z,5.37
2022-10-19T13:37:21.221Z,7.73
2022-10-19T13:39:51.105Z,7.60
2022-10-19T13:42:30.201Z,7.03
2022-10-19T13:44:58.573Z,4.93
2022-10-19T13:50:25.392Z,6.80
2022-10-19T13:53:12.485Z,6.53
2022-10-19T13:56:04.543Z,4.07
2022-10-19T13:59:07.437Z,5.47
2022-10-19T14:01:45.447Z,5.00
2022-10-19T14:04:30.340Z,4.97
2022-10-19T14:07:04.452Z,4.33
2022-10-19T14:09:49.478Z,8.00
2022-10-19T14:12:24.162Z,2.90
2022-10-19T14:14:53.463Z,5.30
2022-10-19T14:17:25.440Z,4.07
2022-10-19T14:19:57.810Z,4.53
2022-10-19T14:22:35.130Z,6.07
2022-10-19T14:25:07.513Z,5.70
2022-10-19T14:27:36.622Z,3.97
2022-10-19T14:30:07.097Z,4.77
2022-10-19T14:32:37.382Z,4.53
2022-10-19T14:35:18.787Z,6.67
2022-10-19T14:37:48.620Z,2.83
2022-10-19T14:40:29.215Z,4.10
2022-10-19T14:42:59.400Z,4.10
2022-10-19T14:45:30.199Z,3.27
2022-10-19T14:48:01.693Z,5.63
2022-10-19T14:53:14.617Z,6.80
2022-10-19T14:55:44.909Z,2.90
2022-10-19T14:58:15.966Z,3.23
2022-10-19T15:00:45.966Z,3.80
2022-10-19T15:03:16.021Z,3.83
2022-10-19T15:05:49.792Z,6.13
2022-10-19T15:08:24.386Z,9.03
2022-10-19T15:10:56.161Z,3.57
2022-10-19T15:13:28.538Z,6.97
2022-10-19T15:15:56.808Z,5.20
2022-10-19T15:18:47.638Z,8.07
2022-10-19T15:21:22.527Z,7.30
2022-10-19T15:23:54.163Z,8.60
2022-10-19T15:26:26.203Z,4.50
2022-10-19T15:28:56.288Z,6.50
2022-10-19T15:31:27.820Z,7.10
2022-10-19T15:33:59.763Z,4.20
2022-10-19T15:36:33.380Z,4.90
2022-10-19T15:39:24.450Z,6.90
2022-10-19T15:41:53.706Z,4.20
2022-10-19T15:44:34.008Z,5.60
2022-10-19T15:47:20.857Z,7.47
2022-10-19T15:50:00.467Z,3.23
2022-10-19T15:52:33.552Z,5.20
2022-10-19T15:55:03.605Z,5.37
2022-10-19T15:57:37.391Z,9.50
2022-10-19T16:00:14.060Z,5.17
2022-10-19T16:02:43.722Z,7.40
2022-10-19T16:05:12.187Z,5.83
2022-10-19T16:07:44.005Z,8.70
2022-10-19T16:10:17.351Z,5.00
2022-10-19T16:12:46.861Z,5.50
2022-10-19T16:15:17.465Z,5.13
2022-10-19T16:17:47.403Z,6.03
2022-10-19T16:20:16.978Z,9.13
2022-10-19T16:22:48.302Z,7.97
2022-10-19T16:25:17.806Z,6.60
2022-10-19T16:27:47.273Z,10.00
2022-10-19T16:30:17.016Z,8.43
2022-10-19T16:32:47.122Z,10.63
2022-10-19T16:35:16.718Z,7.03
2022-10-19T16:37:46.106Z,7.50
2022-10-19T16:40:16.881Z,3.53
2022-10-19T16:42:46.252Z,6.53
2022-10-19T16:45:15.538Z,6.40
2022-10-19T16:47:45.361Z,5.87
2022-10-19T16:50:14.841Z,4.93
2022-10-19T16:52:43.204Z,4.20
2022-10-19T16:55:12.655Z,4.20
2022-10-19T16:57:43.590Z,8.27
2022-10-19T17:00:13.654Z,11.27
2022-10-19T17:02:44.440Z,6.90
2022-10-19T17:05:15.982Z,8.70
2022-10-19T17:07:45.408Z,6.07
2022-10-19T17:10:15.416Z,11.33
2022-10-19T17:12:46.307Z,7.93
2022-10-19T17:15:41.479Z,5.50
2022-10-19T17:18:05.323Z,5.93
2022-10-19T17:20:35.057Z,6.30
2022-10-19T17:23:04.193Z,8.30
2022-10-19T17:25:33.735Z,7.60
2022-10-19T17:28:04.707Z,7.03
2022-10-19T17:30:34.141Z,4.70
2022-10-19T17:33:03.584Z,9.63
2022-10-19T17:35:33.045Z,8.60
2022-10-19T17:38:02.525Z,4.53
2022-10-19T17:40:31.903Z,9.90
2022-10-19T17:43:01.431Z,8.57
2022-10-19T17:45:32.395Z,7.37
2022-10-19T17:48:01.890Z,8.70
2022-10-19T17:50:31.302Z,9.23
2022-10-19T17:53:01.718Z,14.60
2022-10-19T17:55:31.801Z,7.90
2022-10-19T17:58:01.889Z,9.83
2022-10-19T18:00:32.789Z,8.87
2022-10-19T18:03:02.152Z,10.23
2022-10-19T18:05:31.631Z,9.53
2022-10-19T18:08:01.030Z,5.57
2022-10-19T18:10:30.581Z,5.87
2022-10-19T18:12:59.898Z,11.23
2022-10-19T18:15:29.193Z,12.70
2022-10-19T18:18:00.846Z,10.03
2022-10-19T18:20:30.081Z,11.47
2022-10-19T18:22:59.310Z,12.60
2022-10-19T18:25:49.365Z,5.30
2022-10-19T18:28:17.506Z,10.53
2022-10-19T18:30:46.909Z,9.70
2022-10-19T18:33:17.643Z,15.87
2022-10-19T18:35:46.949Z,13.80
2022-10-19T18:38:16.219Z,8.30
2022-10-19T18:40:45.513Z,4.97
2022-10-19T18:43:14.737Z,13.20
2022-10-19T18:45:53.013Z,13.17
2022-10-19T18:48:23.962Z,9.00
2022-10-19T18:50:53.275Z,9.83
2022-10-19T18:53:22.517Z,18.83
2022-10-19T18:55:59.185Z,11.63
2022-10-19T18:58:30.405Z,7.93
2022-10-19T19:01:06.415Z,6.53
2022-10-19T19:03:37.439Z,13.80
2022-10-19T19:06:07.774Z,10.27
2022-10-19T19:08:37.271Z,15.17
2022-10-19T19:11:13.419Z,10.03
2022-10-19T19:13:43.226Z,9.10
2022-10-19T19:16:12.725Z,8.60
2022-10-19T19:18:44.764Z,10.60
2022-10-19T19:21:16.901Z,10.73
2022-10-19T19:23:46.055Z,17.60
2022-10-19T19:26:15.781Z,13.93
2022-10-19T19:28:49.039Z,14.53
2022-10-19T19:31:21.767Z,11.80
2022-10-19T19:33:53.357Z,6.63
2022-10-19T19:36:22.264Z,8.83
2022-10-19T19:38:51.870Z,7.57
2022-10-19T19:41:22.180Z,5.00
2022-10-19T19:43:50.494Z,8.53
2022-10-19T19:46:19.892Z,7.27
2022-10-19T19:48:49.227Z,9.33
2022-10-19T19:51:20.726Z,10.87
2022-10-19T19:53:49.835Z,10.23
2022-10-19T19:56:18.535Z,8.10
2022-10-19T19:58:47.029Z,10.40
2022-10-19T20:01:17.085Z,6.90
2022-10-19T20:03:45.782Z,6.83
2022-10-19T20:06:14.154Z,13.47
2022-10-19T20:08:43.896Z,8.73
2022-10-19T20:11:13.576Z,12.00
2022-10-19T20:13:42.012Z,9.03
2022-10-19T20:16:12.530Z,23.73
2022-10-19T20:18:42.738Z,26.60
2022-10-19T20:21:13.050Z,25.40
2022-10-19T20:23:41.563Z,23.13
2022-10-19T20:26:17.716Z,34.50
2022-10-19T20:28:46.096Z,13.40
2022-10-19T20:31:14.698Z,11.77
2022-10-19T20:33:47.242Z,8.60
2022-10-19T20:36:16.447Z,13.23
2022-10-19T20:38:49.537Z,8.53
2022-10-19T20:41:19.743Z,6.67
2022-10-19T20:43:48.183Z,7.47
2022-10-19T20:46:17.761Z,7.07
2022-10-19T20:48:46.197Z,6.90
2022-10-19T20:51:15.498Z,6.23
2022-10-19T20:53:45.142Z,5.77
2022-10-19T20:56:14.203Z,5.17
2022-10-19T20:58:45.085Z,11.30
2022-10-19T21:01:14.612Z,3.30
2022-10-19T21:03:47.017Z,5.40
2022-10-19T21:06:15.501Z,7.87
2022-10-19T21:08:44.266Z,10.50
2022-10-19T21:11:13.735Z,4.03
2022-10-19T21:13:42.318Z,5.77
2022-10-19T21:16:13.374Z,8.40
2022-10-19T21:18:41.856Z,5.53
2022-10-19T21:21:14.523Z,10.33
2022-10-19T21:23:43.019Z,3.97
2022-10-19T21:26:11.463Z,17.37
2022-10-19T21:28:39.992Z,8.57
2022-10-19T21:31:09.275Z,6.00
2022-10-19T21:33:39.120Z,5.03
2022-10-19T21:36:08.372Z,4.60
2022-10-19T21:38:37.287Z,7.37
2022-10-19T21:41:06.275Z,5.40
2022-10-19T21:43:35.322Z,3.20
2022-10-19T21:46:04.000Z,8.53
2022-10-19T21:48:32.749Z,6.80
2022-10-19T21:51:03.042Z,6.70
2022-10-19T21:53:31.451Z,17.30
2022-10-19T21:56:01.526Z,8.63
2022-10-19T21:58:29.881Z,4.87
2022-10-19T22:01:04.941Z,7.00
2022-10-19T22:03:33.371Z,7.73
2022-10-19T22:06:03.083Z,4.70
2022-10-19T22:08:31.546Z,7.00
2022-10-19T22:10:59.983Z,7.07
2022-10-19T22:13:28.297Z,6.70
2022-10-19T22:15:56.613Z,5.27
2022-10-19T22:18:24.960Z,5.43
2022-10-19T22:20:53.401Z,7.40
2022-10-19T22:23:23.093Z,10.00
2022-10-19T22:25:51.480Z,14.73
2022-10-19T22:28:19.863Z,9.37
2022-10-19T22:30:53.958Z,6.43
2022-10-19T22:33:22.316Z,6.67
2022-10-19T22:36:00.948Z,11.77
2022-10-19T22:38:31.041Z,7.03
2022-10-19T22:40:59.338Z,7.20
2022-10-19T22:43:27.603Z,9.30
2022-10-19T22:45:55.916Z,7.57
2022-10-19T22:48:24.406Z,6.50
2022-10-19T22:50:54.803Z,8.20
2022-10-19T22:53:23.544Z,3.23
2022-10-19T22:55:53.357Z,3.27
2022-10-19T22:58:21.901Z,3.33
2022-10-19T23:00:59.973Z,18.00
2022-10-19T23:03:28.356Z,4.90
2022-10-19T23:05:56.704Z,8.13
2022-10-19T23:08:25.179Z,5.13
2022-10-19T23:10:54.920Z,9.67
2022-10-19T23:13:23.619Z,3.83
2022-10-19T23:15:51.980Z,14.33
2022-10-19T23:18:20.420Z,7.13
2022-10-19T23:20:55.258Z,7.80
2022-10-19T23:23:23.651Z,12.37
2022-10-19T23:26:00.182Z,4.33
2022-10-19T23:28:28.868Z,5.87
2022-10-19T23:30:58.559Z,4.50
2022-10-19T23:33:27.234Z,10.87
2022-10-19T23:35:55.620Z,4.73
2022-10-19T23:38:24.004Z,9.40
2022-10-19T23:40:52.374Z,8.03
2022-10-19T23:43:22.125Z,5.33
2022-10-19T23:45:50.516Z,4.63
2022-10-19T23:48:18.890Z,6.87
2022-10-19T23:50:47.365Z,6.63
2022-10-19T23:53:15.707Z,5.23
2022-10-19T23:55:44.149Z,4.93
2022-10-19T23:58:12.450Z,8.10
